sensor_id;sensor_type;location;lat;lon;timestamp;pressure;altitude;pressure_sealevel;temperature;humidity
57192;BME280;43052;52.588;13.396;2023-05-23T00:00:56;100780.69;;;16.62;45.46
57192;BME280;43052;52.588;13.396;2023-05-23T00:03:22;100776.19;;;16.64;45.41
57192;BME280;43052;52.588;13.396;2023-05-23T00:05:48;100779.66;;;16.66;45.36
57192;BME280;43052;52.588;13.396;2023-05-23T00:08:14;100770.84;;;16.67;45.09
57192;BME280;43052;52.588;13.396;2023-05-23T00:10:40;100772.56;;;16.68;45.03
57192;BME280;43052;52.588;13.396;2023-05-23T00:13:05;100781.19;;;16.73;45.07
57192;BME280;43052;52.588;13.396;2023-05-23T00:15:33;100779.38;;;16.75;44.97
57192;BME280;43052;52.588;13.396;2023-05-23T00:17:59;100779.38;;;16.75;44.90
57192;BME280;43052;52.588;13.396;2023-05-23T00:20:24;100771.50;;;16.73;45.08
57192;BME280;43052;52.588;13.396;2023-05-23T00:22:49;100769.78;;;16.72;44.93
57192;BME280;43052;52.588;13.396;2023-05-23T00:25:16;100773.19;;;16.76;45.01
57192;BME280;43052;52.588;13.396;2023-05-23T00:27:42;100768.00;;;16.73;44.86
57192;BME280;43052;52.588;13.396;2023-05-23T00:30:07;100762.97;;;16.65;45.18
57192;BME280;43052;52.588;13.396;2023-05-23T00:32:32;100768.28;;;16.64;45.39
57192;BME280;43052;52.588;13.396;2023-05-23T00:34:59;100764.03;;;16.58;45.43
57192;BME280;43052;52.588;13.396;2023-05-23T00:37:24;100765.97;;;16.53;45.68
57192;BME280;43052;52.588;13.396;2023-05-23T00:39:50;100755.56;;;16.48;45.81
57192;BME280;43052;52.588;13.396;2023-05-23T00:42:15;100770.56;;;16.46;45.68
57192;BME280;43052;52.588;13.396;2023-05-23T00:44:40;100761.16;;;16.37;46.05
57192;BME280;43052;52.588;13.396;2023-05-23T00:47:06;100769.03;;;16.39;46.18
57192;BME280;43052;52.588;13.396;2023-05-23T00:49:32;100762.97;;;16.35;46.12
57192;BME280;43052;52.588;13.396;2023-05-23T00:51:58;100753.41;;;16.31;46.54
57192;BME280;43052;52.588;13.396;2023-05-23T00:54:29;100756.97;;;16.30;46.70
57192;BME280;43052;52.588;13.396;2023-05-23T00:56:57;100752.69;;;16.26;46.66
57192;BME280;43052;52.588;13.396;2023-05-23T00:59:23;100749.19;;;16.25;46.89
57192;BME280;43052;52.588;13.396;2023-05-23T01:01:50;100751.00;;;16.23;46.70
57192;BME280;43052;52.588;13.396;2023-05-23T01:04:17;100740.53;;;16.20;46.72
57192;BME280;43052;52.588;13.396;2023-05-23T01:06:44;100739.75;;;16.17;46.98
57192;BME280;43052;52.588;13.396;2023-05-23T01:09:11;100736.34;;;16.13;46.88
57192;BME280;43052;52.588;13.396;2023-05-23T01:11:42;100734.56;;;16.13;47.08
57192;BME280;43052;52.588;13.396;2023-05-23T01:14:19;100729.25;;;16.15;47.03
57192;BME280;43052;52.588;13.396;2023-05-23T01:16:52;100727.47;;;16.16;47.04
57192;BME280;43052;52.588;13.396;2023-05-23T01:19:43;100727.34;;;16.20;47.04
57192;BME280;43052;52.588;13.396;2023-05-23T01:25:18;100723.59;;;16.27;46.90
57192;BME280;43052;52.588;13.396;2023-05-23T01:28:00;100725.31;;;16.30;46.97
57192;BME280;43052;52.588;13.396;2023-05-23T01:30:29;100724.38;;;16.31;46.87
57192;BME280;43052;52.588;13.396;2023-05-23T01:32:57;100728.66;;;16.35;46.83
57192;BME280;43052;52.588;13.396;2023-05-23T01:35:26;100722.56;;;16.33;46.68
57192;BME280;43052;52.588;13.396;2023-05-23T01:37:53;100728.66;;;16.35;46.77
57192;BME280;43052;52.588;13.396;2023-05-23T01:40:18;100724.25;;;16.36;46.69
57192;BME280;43052;52.588;13.396;2023-05-23T01:42:44;100726.94;;;16.34;46.71
57192;BME280;43052;52.588;13.396;2023-05-23T01:45:10;100723.47;;;16.32;46.97
57192;BME280;43052;52.588;13.396;2023-05-23T01:47:37;100727.91;;;16.32;46.96
57192;BME280;43052;52.588;13.396;2023-05-23T01:50:03;100723.44;;;16.34;46.98
57192;BME280;43052;52.588;13.396;2023-05-23T01:52:29;100720.06;;;16.28;47.21
57192;BME280;43052;52.588;13.396;2023-05-23T01:54:55;100718.38;;;16.26;47.26
57192;BME280;43052;52.588;13.396;2023-05-23T01:57:21;100713.19;;;16.23;47.14
57192;BME280;43052;52.588;13.396;2023-05-23T01:59:46;100715.81;;;16.23;47.17
57192;BME280;43052;52.588;13.396;2023-05-23T02:02:12;100714.06;;;16.23;47.38
57192;BME280;43052;52.588;13.396;2023-05-23T02:04:37;100713.16;;;16.24;47.36
57192;BME280;43052;52.588;13.396;2023-05-23T02:07:02;100703.38;;;16.28;47.10
57192;BME280;43052;52.588;13.396;2023-05-23T02:09:27;100713.06;;;16.27;47.31
57192;BME280;43052;52.588;13.396;2023-05-23T02:11:53;100707.78;;;16.27;47.13
57192;BME280;43052;52.588;13.396;2023-05-23T02:14:18;100706.09;;;16.25;47.05
57192;BME280;43052;52.588;13.396;2023-05-23T02:16:43;100713.88;;;16.29;47.03
57192;BME280;43052;52.588;13.396;2023-05-23T02:19:09;100718.25;;;16.31;46.91
57192;BME280;43052;52.588;13.396;2023-05-23T02:21:34;100711.25;;;16.29;46.97
57192;BME280;43052;52.588;13.396;2023-05-23T02:24:00;100710.41;;;16.29;47.22
57192;BME280;43052;52.588;13.396;2023-05-23T02:26:25;100709.50;;;16.28;47.10
57192;BME280;43052;52.588;13.396;2023-05-23T02:54:39;100710.25;;;16.34;47.35
57192;BME280;43052;52.588;13.396;2023-05-23T02:57:05;100709.47;;;16.30;47.48
57192;BME280;43052;52.588;13.396;2023-05-23T03:07:16;100704.00;;;16.36;47.78
57192;BME280;43052;52.588;13.396;2023-05-23T03:09:41;100700.63;;;16.31;47.77
57192;BME280;43052;52.588;13.396;2023-05-23T03:12:06;100687.56;;;16.28;47.71
57192;BME280;43052;52.588;13.396;2023-05-23T03:14:31;100692.00;;;16.26;47.83
57192;BME280;43052;52.588;13.396;2023-05-23T03:16:57;100688.50;;;16.25;47.94
57192;BME280;43052;52.588;13.396;2023-05-23T03:43:53;100689.72;;;16.43;47.94
57192;BME280;43052;52.588;13.396;2023-05-23T03:46:51;100698.47;;;16.44;48.00
57192;BME280;43052;52.588;13.396;2023-05-23T03:54:59;100691.34;;;16.48;48.16
57192;BME280;43052;52.588;13.396;2023-05-23T03:57:24;100686.94;;;16.48;48.15
57192;BME280;43052;52.588;13.396;2023-05-23T03:59:50;100682.66;;;16.44;48.28
57192;BME280;43052;52.588;13.396;2023-05-23T04:02:15;100686.06;;;16.48;48.18
57192;BME280;43052;52.588;13.396;2023-05-23T04:04:40;100676.47;;;16.45;48.23
57192;BME280;43052;52.588;13.396;2023-05-23T04:07:06;100681.84;;;16.42;48.33
57192;BME280;43052;52.588;13.396;2023-05-23T04:09:33;100690.56;;;16.44;48.08
57192;BME280;43052;52.588;13.396;2023-05-23T04:11:58;100689.56;;;16.48;48.60
57192;BME280;43052;52.588;13.396;2023-05-23T04:14:23;100690.34;;;16.52;48.13
57192;BME280;43052;52.588;13.396;2023-05-23T04:16:48;100680.66;;;16.52;48.39
57192;BME280;43052;52.588;13.396;2023-05-23T04:21:49;100678.56;;;16.62;48.68
57192;BME280;43052;52.588;13.396;2023-05-23T04:24:14;100672.38;;;16.63;48.84
57192;BME280;43052;52.588;13.396;2023-05-23T04:26:39;100673.97;;;16.69;48.81
57192;BME280;43052;52.588;13.396;2023-05-23T04:35:38;100663.13;;;16.78;48.94
57192;BME280;43052;52.588;13.396;2023-05-23T04:45:39;100665.34;;;17.17;48.07
57192;BME280;43052;52.588;13.396;2023-05-23T05:33:28;100685.28;;;17.01;51.51
57192;BME280;43052;52.588;13.396;2023-05-23T05:36:30;100697.63;;;17.00;51.55
57192;BME280;43052;52.588;13.396;2023-05-23T05:46:57;100692.44;;;16.97;52.02
57192;BME280;43052;52.588;13.396;2023-05-23T06:21:23;100659.50;;;17.58;52.16
57192;BME280;43052;52.588;13.396;2023-05-23T06:23:48;100661.75;;;17.69;51.97
57192;BME280;43052;52.588;13.396;2023-05-23T06:26:13;100664.75;;;17.83;51.74
57192;BME280;43052;52.588;13.396;2023-05-23T06:28:39;100668.72;;;17.95;51.49
57192;BME280;43052;52.588;13.396;2023-05-23T06:31:57;100669.75;;;17.91;51.47
57192;BME280;43052;52.588;13.396;2023-05-23T06:34:34;100660.94;;;17.91;50.86
57192;BME280;43052;52.588;13.396;2023-05-23T06:41:33;100659.91;;;17.95;51.51
57192;BME280;43052;52.588;13.396;2023-05-23T06:44:10;100673.00;;;17.99;51.37
57192;BME280;43052;52.588;13.396;2023-05-23T06:47:09;100666.84;;;17.99;51.69
57192;BME280;43052;52.588;13.396;2023-05-23T06:49:40;100658.81;;;18.02;51.82
57192;BME280;43052;52.588;13.396;2023-05-23T06:52:05;100656.47;;;18.16;51.54
57192;BME280;43052;52.588;13.396;2023-05-23T06:54:30;100675.31;;;18.53;51.16
57192;BME280;43052;52.588;13.396;2023-05-23T06:56:55;100665.63;;;18.74;50.47
57192;BME280;43052;52.588;13.396;2023-05-23T06:59:21;100669.34;;;19.13;49.54
57192;BME280;43052;52.588;13.396;2023-05-23T07:01:55;100675.91;;;19.66;49.34
57192;BME280;43052;52.588;13.396;2023-05-23T07:04:26;100670.88;;;20.19;48.02
57192;BME280;43052;52.588;13.396;2023-05-23T07:06:52;100653.19;;;21.62;45.28
57192;BME280;43052;52.588;13.396;2023-05-23T07:09:17;100667.28;;;23.37;41.71
57192;BME280;43052;52.588;13.396;2023-05-23T07:11:42;100668.00;;;23.84;40.10
57192;BME280;43052;52.588;13.396;2023-05-23T07:14:08;100677.16;;;23.65;39.42
57192;BME280;43052;52.588;13.396;2023-05-23T07:16:33;100678.56;;;23.42;39.65
57192;BME280;43052;52.588;13.396;2023-05-23T07:19:00;100673.19;;;23.27;38.92
57192;BME280;43052;52.588;13.396;2023-05-23T07:21:25;100671.09;;;23.18;38.93
57192;BME280;43052;52.588;13.396;2023-05-23T07:23:50;100673.66;;;23.20;39.14
57192;BME280;43052;52.588;13.396;2023-05-23T07:26:16;100665.03;;;23.14;39.04
57192;BME280;43052;52.588;13.396;2023-05-23T07:28:41;100674.44;;;23.22;38.95
57192;BME280;43052;52.588;13.396;2023-05-23T07:31:06;100669.84;;;23.24;38.95
57192;BME280;43052;52.588;13.396;2023-05-23T07:33:33;100660.94;;;23.39;38.58
57192;BME280;43052;52.588;13.396;2023-05-23T07:35:58;100659.41;;;23.78;37.61
57192;BME280;43052;52.588;13.396;2023-05-23T07:38:25;100656.69;;;24.22;36.88
57192;BME280;43052;52.588;13.396;2023-05-23T07:40:50;100651.38;;;24.49;36.78
57192;BME280;43052;52.588;13.396;2023-05-23T07:43:16;100651.06;;;24.54;36.52
57192;BME280;43052;52.588;13.396;2023-05-23T07:45:41;100656.28;;;24.55;36.49
57192;BME280;43052;52.588;13.396;2023-05-23T07:48:07;100649.09;;;25.49;34.81
57192;BME280;43052;52.588;13.396;2023-05-23T07:50:33;100652.59;;;25.89;34.06
57192;BME280;43052;52.588;13.396;2023-05-23T07:52:58;100660.66;;;26.50;34.02
57192;BME280;43052;52.588;13.396;2023-05-23T07:58:33;100661.22;;;28.61;30.34
57192;BME280;43052;52.588;13.396;2023-05-23T08:00:59;100664.66;;;29.38;28.90
57192;BME280;43052;52.588;13.396;2023-05-23T08:03:24;100663.78;;;29.69;28.06
57192;BME280;43052;52.588;13.396;2023-05-23T08:05:49;100661.78;;;33.05;24.41
57192;BME280;43052;52.588;13.396;2023-05-23T08:08:15;100644.47;;;36.62;21.03
57192;BME280;43052;52.588;13.396;2023-05-23T08:10:40;100662.19;;;37.19;20.06
57192;BME280;43052;52.588;13.396;2023-05-23T08:13:05;100667.19;;;35.91;20.49
57192;BME280;43052;52.588;13.396;2023-05-23T08:15:32;100655.88;;;37.19;19.46
57192;BME280;43052;52.588;13.396;2023-05-23T08:17:58;100659.47;;;37.79;18.57
57192;BME280;43052;52.588;13.396;2023-05-23T08:20:24;100657.31;;;37.59;18.35
57192;BME280;43052;52.588;13.396;2023-05-23T08:22:58;100662.13;;;38.46;17.86
57192;BME280;43052;52.588;13.396;2023-05-23T08:25:23;100669.09;;;40.04;16.39
57192;BME280;43052;52.588;13.396;2023-05-23T08:27:49;100668.38;;;41.17;15.63
57192;BME280;43052;52.588;13.396;2023-05-23T08:30:14;100667.16;;;41.79;15.07
57192;BME280;43052;52.588;13.396;2023-05-23T08:32:40;100674.66;;;42.42;14.23
57192;BME280;43052;52.588;13.396;2023-05-23T08:35:05;100667.66;;;42.72;14.07
57192;BME280;43052;52.588;13.396;2023-05-23T08:37:32;100676.97;;;43.40;13.70
57192;BME280;43052;52.588;13.396;2023-05-23T08:39:57;100686.22;;;44.02;13.76
57192;BME280;43052;52.588;13.396;2023-05-23T08:42:22;100675.84;;;44.58;13.30
57192;BME280;43052;52.588;13.396;2023-05-23T08:44:47;100684.75;;;45.43;12.63
57192;BME280;43052;52.588;13.396;2023-05-23T08:47:14;100680.16;;;46.02;12.11
57192;BME280;43052;52.588;13.396;2023-05-23T08:49:41;100688.63;;;45.83;12.27
57192;BME280;43052;52.588;13.396;2023-05-23T08:52:11;100687.00;;;45.99;11.62
57192;BME280;43052;52.588;13.396;2023-05-23T08:54:36;100691.81;;;45.92;12.19
57192;BME280;43052;52.588;13.396;2023-05-23T08:57:02;100693.13;;;44.23;13.31
57192;BME280;43052;52.588;13.396;2023-05-23T08:59:28;100680.91;;;42.56;14.73
57192;BME280;43052;52.588;13.396;2023-05-23T09:01:54;100682.50;;;40.61;15.74
57192;BME280;43052;52.588;13.396;2023-05-23T09:04:21;100694.13;;;40.69;16.65
57192;BME280;43052;52.588;13.396;2023-05-23T09:06:46;100683.72;;;42.11;15.60
57192;BME280;43052;52.588;13.396;2023-05-23T09:09:11;100694.34;;;43.41;14.43
57192;BME280;43052;52.588;13.396;2023-05-23T09:11:37;100686.97;;;44.39;13.83
57192;BME280;43052;52.588;13.396;2023-05-23T09:14:03;100692.47;;;44.51;13.69
57192;BME280;43052;52.588;13.396;2023-05-23T09:16:33;100698.19;;;43.58;14.44
57192;BME280;43052;52.588;13.396;2023-05-23T09:19:13;100695.97;;;42.47;15.34
57192;BME280;43052;52.588;13.396;2023-05-23T09:21:43;100709.22;;;40.32;17.16
57192;BME280;43052;52.588;13.396;2023-05-23T09:24:09;100704.47;;;38.78;18.80
57192;BME280;43052;52.588;13.396;2023-05-23T09:26:34;100706.81;;;37.18;20.24
57192;BME280;43052;52.588;13.396;2023-05-23T09:29:04;100713.88;;;35.47;21.84
57192;BME280;43052;52.588;13.396;2023-05-23T09:31:30;100703.34;;;34.52;23.18
57192;BME280;43052;52.588;13.396;2023-05-23T09:33:57;100703.44;;;33.83;24.07
57192;BME280;43052;52.588;13.396;2023-05-23T09:36:22;100708.00;;;33.30;24.86
57192;BME280;43052;52.588;13.396;2023-05-23T09:38:48;100711.13;;;33.35;25.48
57192;BME280;43052;52.588;13.396;2023-05-23T09:41:38;100706.41;;;35.49;23.84
57192;BME280;43052;52.588;13.396;2023-05-23T09:44:04;100704.19;;;37.10;21.91
57192;BME280;43052;52.588;13.396;2023-05-23T09:46:33;100705.00;;;36.49;22.40
57192;BME280;43052;52.588;13.396;2023-05-23T09:48:59;100698.06;;;35.50;23.25
57192;BME280;43052;52.588;13.396;2023-05-23T09:51:24;100706.59;;;34.89;23.66
57192;BME280;43052;52.588;13.396;2023-05-23T09:53:50;100711.00;;;34.65;24.10
57192;BME280;43052;52.588;13.396;2023-05-23T09:56:16;100701.34;;;35.04;23.94
57192;BME280;43052;52.588;13.396;2023-05-23T09:58:45;100704.75;;;35.96;23.55
57192;BME280;43052;52.588;13.396;2023-05-23T10:01:10;100698.16;;;37.29;22.05
57192;BME280;43052;52.588;13.396;2023-05-23T10:03:57;100708.06;;;39.07;20.65
57192;BME280;43052;52.588;13.396;2023-05-23T10:06:34;100693.25;;;39.52;19.99
57192;BME280;43052;52.588;13.396;2023-05-23T10:09:03;100707.09;;;41.68;19.01
57192;BME280;43052;52.588;13.396;2023-05-23T10:14:37;100698.94;;;39.50;19.69
57192;BME280;43052;52.588;13.396;2023-05-23T10:17:07;100708.16;;;39.84;19.75
57192;BME280;43052;52.588;13.396;2023-05-23T10:19:58;100699.59;;;41.30;18.23
57192;BME280;43052;52.588;13.396;2023-05-23T10:22:25;100701.34;;;41.76;17.77
57192;BME280;43052;52.588;13.396;2023-05-23T10:24:56;100703.56;;;41.34;17.16
57192;BME280;43052;52.588;13.396;2023-05-23T10:27:22;100708.38;;;38.69;19.28
57192;BME280;43052;52.588;13.396;2023-05-23T10:29:47;100710.13;;;36.04;22.19
57192;BME280;43052;52.588;13.396;2023-05-23T10:32:14;100702.31;;;34.45;24.36
57192;BME280;43052;52.588;13.396;2023-05-23T10:34:43;100713.00;;;33.17;26.09
57192;BME280;43052;52.588;13.396;2023-05-23T10:37:20;100711.22;;;31.69;28.33
57192;BME280;43052;52.588;13.396;2023-05-23T10:39:58;100706.34;;;30.96;29.54
57192;BME280;43052;52.588;13.396;2023-05-23T10:42:40;100698.53;;;30.54;30.12
57192;BME280;43052;52.588;13.396;2023-05-23T10:45:20;100704.25;;;29.79;30.78
57192;BME280;43052;52.588;13.396;2023-05-23T10:47:47;100712.66;;;29.33;31.63
57192;BME280;43052;52.588;13.396;2023-05-23T10:50:30;100699.91;;;28.82;32.09
57192;BME280;43052;52.588;13.396;2023-05-23T10:52:59;100716.53;;;28.43;33.29
57192;BME280;43052;52.588;13.396;2023-05-23T10:55:25;100703.84;;;27.88;34.24
57192;BME280;43052;52.588;13.396;2023-05-23T10:58:14;100712.78;;;27.89;34.63
57192;BME280;43052;52.588;13.396;2023-05-23T11:00:49;100712.03;;;27.87;35.76
57192;BME280;43052;52.588;13.396;2023-05-23T11:03:15;100716.44;;;27.54;37.44
57192;BME280;43052;52.588;13.396;2023-05-23T11:05:47;100721.06;;;27.51;38.14
57192;BME280;43052;52.588;13.396;2023-05-23T11:08:18;100722.03;;;27.73;38.24
57192;BME280;43052;52.588;13.396;2023-05-23T11:11:03;100730.03;;;28.20;38.18
57192;BME280;43052;52.588;13.396;2023-05-23T11:16:27;100733.19;;;28.03;38.57
57192;BME280;43052;52.588;13.396;2023-05-23T11:21:36;100735.94;;;27.44;38.89
57192;BME280;43052;52.588;13.396;2023-05-23T11:24:01;100737.63;;;27.10;39.48
57192;BME280;43052;52.588;13.396;2023-05-23T11:26:30;100751.66;;;26.78;40.53
57192;BME280;43052;52.588;13.396;2023-05-23T11:28:56;100744.69;;;26.38;41.13
57192;BME280;43052;52.588;13.396;2023-05-23T11:31:23;100749.13;;;26.13;41.94
57192;BME280;43052;52.588;13.396;2023-05-23T11:33:50;100746.44;;;26.00;42.09
57192;BME280;43052;52.588;13.396;2023-05-23T11:36:15;100744.81;;;25.97;42.34
57192;BME280;43052;52.588;13.396;2023-05-23T11:38:40;100739.69;;;25.94;42.60
57192;BME280;43052;52.588;13.396;2023-05-23T11:41:06;100746.44;;;25.74;42.92
57192;BME280;43052;52.588;13.396;2023-05-23T11:43:31;100749.97;;;25.49;43.61
57192;BME280;43052;52.588;13.396;2023-05-23T11:45:56;100752.69;;;25.34;43.89
57192;BME280;43052;52.588;13.396;2023-05-23T11:48:21;100746.84;;;25.42;44.01
57192;BME280;43052;52.588;13.396;2023-05-23T11:50:49;100751.47;;;25.66;43.52
57192;BME280;43052;52.588;13.396;2023-05-23T11:53:14;100742.38;;;25.69;43.26
57192;BME280;43052;52.588;13.396;2023-05-23T11:55:56;100760.25;;;25.81;43.32
57192;BME280;43052;52.588;13.396;2023-05-23T11:58:28;100751.56;;;25.90;42.53
57192;BME280;43052;52.588;13.396;2023-05-23T12:01:04;100756.19;;;25.75;42.81
57192;BME280;43052;52.588;13.396;2023-05-23T12:03:30;100758.84;;;25.62;43.09
57192;BME280;43052;52.588;13.396;2023-05-23T12:05:57;100766.25;;;25.59;42.90
57192;BME280;43052;52.588;13.396;2023-05-23T12:08:22;100773.31;;;25.47;42.84
57192;BME280;43052;52.588;13.396;2023-05-23T12:10:58;100763.88;;;25.54;43.05
57192;BME280;43052;52.588;13.396;2023-05-23T12:13:24;100762.16;;;25.66;42.94
57192;BME280;43052;52.588;13.396;2023-05-23T12:15:57;100768.09;;;25.71;43.00
57192;BME280;43052;52.588;13.396;2023-05-23T12:18:26;100770.13;;;26.19;42.49
57192;BME280;43052;52.588;13.396;2023-05-23T12:20:51;100770.81;;;26.47;41.68
57192;BME280;43052;52.588;13.396;2023-05-23T12:23:19;100776.09;;;26.73;41.11
57192;BME280;43052;52.588;13.396;2023-05-23T12:25:48;100775.44;;;26.82;40.85
57192;BME280;43052;52.588;13.396;2023-05-23T12:28:14;100780.00;;;26.56;41.69
57192;BME280;43052;52.588;13.396;2023-05-23T12:30:41;100777.28;;;26.69;41.31
57192;BME280;43052;52.588;13.396;2023-05-23T12:33:07;100771.81;;;26.95;41.04
57192;BME280;43052;52.588;13.396;2023-05-23T12:35:33;100780.00;;;26.93;40.95
57192;BME280;43052;52.588;13.396;2023-05-23T12:37:58;100790.31;;;26.86;40.57
57192;BME280;43052;52.588;13.396;2023-05-23T12:40:23;100783.00;;;26.51;41.32
57192;BME280;43052;52.588;13.396;2023-05-23T12:42:53;100788.19;;;26.41;41.63
57192;BME280;43052;52.588;13.396;2023-05-23T12:45:23;100775.25;;;26.35;41.61
57192;BME280;43052;52.588;13.396;2023-05-23T12:47:53;100785.44;;;26.04;41.68
57192;BME280;43052;52.588;13.396;2023-05-23T12:50:19;100782.09;;;25.62;42.07
57192;BME280;43052;52.588;13.396;2023-05-23T12:52:44;100787.66;;;25.59;42.32
57192;BME280;43052;52.588;13.396;2023-05-23T12:55:09;100784.78;;;25.34;42.77
57192;BME280;43052;52.588;13.396;2023-05-23T12:57:35;100783.84;;;25.35;43.36
57192;BME280;43052;52.588;13.396;2023-05-23T13:00:00;100782.41;;;25.17;43.54
57192;BME280;43052;52.588;13.396;2023-05-23T13:02:26;100793.13;;;24.90;44.13
57192;BME280;43052;52.588;13.396;2023-05-23T13:04:52;100794.13;;;24.74;44.68
57192;BME280;43052;52.588;13.396;2023-05-23T13:07:17;100789.75;;;24.44;44.99
57192;BME280;43052;52.588;13.396;2023-05-23T13:09:42;100808.75;;;24.54;45.29
57192;BME280;43052;52.588;13.396;2023-05-23T13:12:07;100799.31;;;24.48;45.52
57192;BME280;43052;52.588;13.396;2023-05-23T13:14:33;100798.78;;;24.56;45.54
57192;BME280;43052;52.588;13.396;2023-05-23T13:16:58;100805.84;;;24.57;45.67
57192;BME280;43052;52.588;13.396;2023-05-23T13:19:23;100806.66;;;24.45;45.71
57192;BME280;43052;52.588;13.396;2023-05-23T13:21:49;100807.44;;;24.32;46.03
57192;BME280;43052;52.588;13.396;2023-05-23T13:24:17;100803.41;;;24.39;45.95
57192;BME280;43052;52.588;13.396;2023-05-23T13:26:42;100811.78;;;24.62;45.64
57192;BME280;43052;52.588;13.396;2023-05-23T13:29:08;100814.28;;;24.51;45.80
57192;BME280;43052;52.588;13.396;2023-05-23T13:31:33;100806.94;;;24.11;46.25
57192;BME280;43052;52.588;13.396;2023-05-23T13:33:58;100818.78;;;23.62;46.78
57192;BME280;43052;52.588;13.396;2023-05-23T13:36:24;100816.19;;;22.98;48.43
57192;BME280;43052;52.588;13.396;2023-05-23T13:38:50;100818.78;;;22.51;49.54
57192;BME280;43052;52.588;13.396;2023-05-23T13:41:15;100820.06;;;22.11;50.54
57192;BME280;43052;52.588;13.396;2023-05-23T13:43:40;100823.47;;;21.79;51.47
57192;BME280;43052;52.588;13.396;2023-05-23T13:46:06;100838.88;;;21.72;51.67
57192;BME280;43052;52.588;13.396;2023-05-23T13:48:31;100830.66;;;21.59;52.11
57192;BME280;43052;52.588;13.396;2023-05-23T13:50:56;100834.66;;;21.32;52.31
57192;BME280;43052;52.588;13.396;2023-05-23T13:53:22;100841.19;;;21.07;53.32
57192;BME280;43052;52.588;13.396;2023-05-23T13:55:47;100838.69;;;20.85;53.86
57192;BME280;43052;52.588;13.396;2023-05-23T13:58:13;100840.69;;;20.98;53.70
57192;BME280;43052;52.588;13.396;2023-05-23T14:00:38;100839.81;;;21.17;53.42
57192;BME280;43052;52.588;13.396;2023-05-23T14:03:04;100831.06;;;21.33;53.09
57192;BME280;43052;52.588;13.396;2023-05-23T14:05:29;100845.06;;;21.36;52.85
57192;BME280;43052;52.588;13.396;2023-05-23T14:07:54;100845.31;;;21.32;53.25
57192;BME280;43052;52.588;13.396;2023-05-23T14:10:20;100848.06;;;21.30;53.25
57192;BME280;43052;52.588;13.396;2023-05-23T14:12:45;100845.47;;;21.28;53.52
57192;BME280;43052;52.588;13.396;2023-05-23T14:15:11;100852.81;;;21.23;53.54
57192;BME280;43052;52.588;13.396;2023-05-23T14:17:37;100849.91;;;21.28;53.67
57192;BME280;43052;52.588;13.396;2023-05-23T14:20:03;100851.78;;;21.26;53.66
57192;BME280;43052;52.588;13.396;2023-05-23T14:22:28;100860.78;;;21.23;54.04
57192;BME280;43052;52.588;13.396;2023-05-23T14:24:53;100848.94;;;21.11;53.84
57192;BME280;43052;52.588;13.396;2023-05-23T14:27:19;100850.53;;;20.96;54.14
57192;BME280;43052;52.588;13.396;2023-05-23T14:29:45;100858.72;;;20.73;54.60
57192;BME280;43052;52.588;13.396;2023-05-23T14:32:11;100854.59;;;20.46;55.26
57192;BME280;43052;52.588;13.396;2023-05-23T14:34:36;100858.63;;;20.36;55.65
57192;BME280;43052;52.588;13.396;2023-05-23T14:37:02;100859.59;;;20.33;55.83
57192;BME280;43052;52.588;13.396;2023-05-23T14:39:27;100863.38;;;20.28;56.32
57192;BME280;43052;52.588;13.396;2023-05-23T14:41:53;100865.06;;;20.30;56.07
57192;BME280;43052;52.588;13.396;2023-05-23T14:44:19;100860.28;;;20.18;56.46
57192;BME280;43052;52.588;13.396;2023-05-23T14:46:44;100857.72;;;20.16;56.75
57192;BME280;43052;52.588;13.396;2023-05-23T14:49:13;100862.53;;;20.27;56.60
57192;BME280;43052;52.588;13.396;2023-05-23T14:51:39;100871.81;;;20.38;56.29
57192;BME280;43052;52.588;13.396;2023-05-23T14:54:04;100852.72;;;20.29;56.38
57192;BME280;43052;52.588;13.396;2023-05-23T14:56:29;100871.63;;;20.22;56.61
57192;BME280;43052;52.588;13.396;2023-05-23T14:58:55;100885.91;;;19.98;57.04
57192;BME280;43052;52.588;13.396;2023-05-23T15:01:21;100885.59;;;19.84;57.28
57192;BME280;43052;52.588;13.396;2023-05-23T15:03:47;100889.03;;;19.65;57.11
57192;BME280;43052;52.588;13.396;2023-05-23T15:06:12;100908.66;;;19.39;57.57
57192;BME280;43052;52.588;13.396;2023-05-23T15:08:37;100905.19;;;19.15;57.70
57192;BME280;43052;52.588;13.396;2023-05-23T15:11:02;100911.03;;;19.01;57.92
57192;BME280;43052;52.588;13.396;2023-05-23T15:13:27;100913.84;;;18.96;57.93
57192;BME280;43052;52.588;13.396;2023-05-23T15:15:53;100914.06;;;18.90;57.62
57192;BME280;43052;52.588;13.396;2023-05-23T15:18:18;100915.84;;;18.89;57.78
57192;BME280;43052;52.588;13.396;2023-05-23T15:20:43;100920.63;;;19.03;57.46
57192;BME280;43052;52.588;13.396;2023-05-23T15:23:09;100910.72;;;19.08;57.19
57192;BME280;43052;52.588;13.396;2023-05-23T15:25:34;100925.75;;;19.08;56.79
57192;BME280;43052;52.588;13.396;2023-05-23T15:27:59;100925.25;;;18.98;57.09
57192;BME280;43052;52.588;13.396;2023-05-23T15:30:24;100932.47;;;18.94;56.61
57192;BME280;43052;52.588;13.396;2023-05-23T15:32:50;100944.84;;;18.94;57.01
57192;BME280;43052;52.588;13.396;2023-05-23T15:35:15;100942.25;;;18.92;56.56
57192;BME280;43052;52.588;13.396;2023-05-23T15:37:40;100949.69;;;18.81;56.81
57192;BME280;43052;52.588;13.396;2023-05-23T15:40:07;100938.19;;;18.82;57.00
57192;BME280;43052;52.588;13.396;2023-05-23T15:42:32;100941.09;;;18.74;56.87
57192;BME280;43052;52.588;13.396;2023-05-23T15:44:57;100945.78;;;18.68;56.97
57192;BME280;43052;52.588;13.396;2023-05-23T15:47:22;100940.25;;;18.50;57.07